createdAt,value
2018-09-11T00:01:27.007Z,17.80
2018-09-11T00:03:55.583Z,17.90
2018-09-11T00:06:24.678Z,18.00
2018-09-11T00:08:53.110Z,18.10
2018-09-11T00:11:21.564Z,18.20
2018-09-11T00:13:50.024Z,18.10
2018-09-11T00:16:18.818Z,18.10
2018-09-11T00:18:47.752Z,18.10
2018-09-11T00:21:16.832Z,18.00
2018-09-11T00:23:45.414Z,18.00
2018-09-11T00:26:14.047Z,18.00
2018-09-11T00:28:42.722Z,18.00
2018-09-11T00:31:11.226Z,17.90
2018-09-11T00:33:39.752Z,17.90
2018-09-11T00:36:08.340Z,17.90
2018-09-11T00:38:37.018Z,17.90
2018-09-11T00:41:05.504Z,17.90
2018-09-11T00:43:33.994Z,17.80
2018-09-11T00:46:02.482Z,17.80
2018-09-11T00:48:31.153Z,17.80
2018-09-11T00:51:00.359Z,17.80
2018-09-11T00:53:29.109Z,17.90
2018-09-11T00:55:57.652Z,17.90
2018-09-11T00:58:26.184Z,17.90
2018-09-11T01:00:54.663Z,17.80
2018-09-11T01:03:23.173Z,17.80
2018-09-11T01:05:51.781Z,17.80
2018-09-11T01:08:20.373Z,17.70
2018-09-11T01:10:48.952Z,17.70
2018-09-11T01:13:18.145Z,17.70
2018-09-11T01:15:46.688Z,17.70
2018-09-11T01:18:15.233Z,17.60
2018-09-11T01:20:43.735Z,17.60
2018-09-11T01:23:12.152Z,17.60
2018-09-11T01:25:40.584Z,17.50
2018-09-11T01:28:09.137Z,17.50
2018-09-11T01:30:37.897Z,17.50
2018-09-11T01:33:06.365Z,17.50
2018-09-11T01:35:35.068Z,17.40
2018-09-11T01:38:03.543Z,17.40
2018-09-11T01:40:32.788Z,17.40
2018-09-11T01:43:01.322Z,17.40
2018-09-11T01:45:29.779Z,17.40
2018-09-11T01:47:58.245Z,17.40
2018-09-11T01:50:26.730Z,17.40
2018-09-11T01:52:55.164Z,17.40
2018-09-11T01:55:23.617Z,17.40
2018-09-11T01:57:52.144Z,17.40
2018-09-11T02:00:21.414Z,17.40
2018-09-11T02:02:49.874Z,17.40
2018-09-11T02:05:19.965Z,17.40
2018-09-11T02:07:48.842Z,17.30
2018-09-11T02:10:17.270Z,17.30
2018-09-11T02:12:45.774Z,17.30
2018-09-11T02:15:14.249Z,17.30
2018-09-11T02:17:42.867Z,17.30
2018-09-11T02:20:11.334Z,17.30
2018-09-11T02:22:39.928Z,17.30
2018-09-11T02:25:15.177Z,17.30
2018-09-11T02:27:43.615Z,17.30
2018-09-11T02:30:12.109Z,17.30
2018-09-11T02:32:40.544Z,17.40
2018-09-11T02:35:09.295Z,17.40
2018-09-11T02:37:37.750Z,17.40
2018-09-11T02:40:06.269Z,17.40
2018-09-11T02:42:35.284Z,17.40
2018-09-11T02:45:03.776Z,17.40
2018-09-11T02:47:32.222Z,17.40
2018-09-11T02:50:00.692Z,17.50
2018-09-11T02:52:29.177Z,17.50
2018-09-11T02:54:57.814Z,17.60
2018-09-11T02:57:26.278Z,17.60
2018-09-11T02:59:54.726Z,17.60
2018-09-11T03:02:23.158Z,17.70
2018-09-11T03:04:51.699Z,17.70
2018-09-11T03:07:20.154Z,17.70
2018-09-11T03:09:48.953Z,17.80
2018-09-11T03:12:17.412Z,17.80
2018-09-11T03:14:45.904Z,17.80
2018-09-11T03:17:14.412Z,17.90
2018-09-11T03:19:42.867Z,18.00
2018-09-11T03:22:11.359Z,18.00
2018-09-11T03:24:40.451Z,18.00
2018-09-11T03:27:09.668Z,18.00
2018-09-11T03:29:38.120Z,18.10
2018-09-11T03:32:06.725Z,18.10
2018-09-11T03:34:35.365Z,18.10
2018-09-11T03:37:03.830Z,18.10
2018-09-11T03:39:32.259Z,18.10
2018-09-11T03:42:00.855Z,18.20
2018-09-11T03:44:30.148Z,18.20
2018-09-11T03:46:58.629Z,18.20
2018-09-11T03:49:27.115Z,18.20
2018-09-11T03:51:55.525Z,18.20
2018-09-11T03:54:23.968Z,18.20
2018-09-11T03:56:52.419Z,18.30
2018-09-11T03:59:20.939Z,18.30
2018-09-11T04:01:49.416Z,18.40
2018-09-11T04:04:17.992Z,18.50
2018-09-11T04:06:46.455Z,18.50
2018-09-11T04:09:14.909Z,18.60
2018-09-11T04:11:43.515Z,18.60
2018-09-11T04:14:12.059Z,18.60
2018-09-11T04:16:40.626Z,18.60
2018-09-11T04:19:09.177Z,18.50
2018-09-11T04:21:37.659Z,18.50
2018-09-11T04:24:06.320Z,18.50
2018-09-11T04:26:34.811Z,18.40
2018-09-11T04:29:03.371Z,18.30
2018-09-11T04:31:31.928Z,18.30
2018-09-11T04:34:00.437Z,18.20
2018-09-11T04:36:29.130Z,18.20
2018-09-11T04:38:57.731Z,18.10
2018-09-11T04:41:26.130Z,18.10
2018-09-11T04:43:54.600Z,18.10
2018-09-11T04:46:23.072Z,18.10
2018-09-11T04:48:51.527Z,18.10
2018-09-11T04:51:20.590Z,18.10
2018-09-11T04:53:49.150Z,18.10
2018-09-11T04:56:17.668Z,18.10
2018-09-11T04:58:46.277Z,18.10
2018-09-11T05:01:14.801Z,18.10
2018-09-11T05:03:43.401Z,18.10
2018-09-11T05:06:11.951Z,18.10
2018-09-11T05:08:40.483Z,18.10
2018-09-11T05:11:09.335Z,18.10
2018-09-11T05:13:37.955Z,18.10
2018-09-11T05:16:06.477Z,18.10
2018-09-11T05:18:35.447Z,18.10
2018-09-11T05:21:03.967Z,18.00
2018-09-11T05:23:32.568Z,18.00
2018-09-11T05:26:01.113Z,18.00
2018-09-11T05:28:33.165Z,18.00
2018-09-11T05:31:01.661Z,18.00
2018-09-11T05:33:30.114Z,17.90
2018-09-11T05:35:58.660Z,17.90
2018-09-11T05:38:27.927Z,17.80
2018-09-11T05:40:56.471Z,17.80
2018-09-11T05:43:25.059Z,17.80
2018-09-11T05:45:53.649Z,17.80
2018-09-11T05:48:22.133Z,17.80
2018-09-11T05:50:50.834Z,17.80
2018-09-11T05:53:19.299Z,17.70
2018-09-11T05:55:47.877Z,17.70
2018-09-11T05:58:16.403Z,17.70
2018-09-11T06:00:44.839Z,17.80
2018-09-11T06:03:13.310Z,17.90
2018-09-11T06:05:41.887Z,18.00
2018-09-11T06:08:10.319Z,18.10
2018-09-11T06:10:38.822Z,18.10
2018-09-11T06:13:07.432Z,18.20
2018-09-11T06:15:36.192Z,18.40
2018-09-11T06:18:04.690Z,18.40
2018-09-11T06:20:33.683Z,18.40
2018-09-11T06:23:02.255Z,18.40
2018-09-11T06:25:30.698Z,18.40
2018-09-11T06:28:01.029Z,18.40
2018-09-11T06:30:29.496Z,18.50
2018-09-11T06:32:58.227Z,18.70
2018-09-11T06:35:26.773Z,18.80
2018-09-11T06:37:55.213Z,19.00
2018-09-11T06:40:23.861Z,19.00
2018-09-11T06:42:52.358Z,19.10
2018-09-11T06:45:20.873Z,19.30
2018-09-11T06:47:49.427Z,19.30
2018-09-11T06:50:17.976Z,19.40
2018-09-11T06:52:46.533Z,19.40
2018-09-11T06:55:15.512Z,19.50
2018-09-11T06:57:44.050Z,19.70
2018-09-11T07:00:12.641Z,19.90
2018-09-11T07:02:41.343Z,20.10
2018-09-11T07:05:09.841Z,20.30
2018-09-11T07:07:38.333Z,20.40
2018-09-11T07:10:07.325Z,20.40
2018-09-11T07:12:35.905Z,20.40
2018-09-11T07:15:04.771Z,20.20
2018-09-11T07:17:33.245Z,20.20
2018-09-11T07:20:01.999Z,20.10
2018-09-11T07:22:30.475Z,20.40
2018-09-11T07:24:59.076Z,20.70
2018-09-11T07:27:27.739Z,20.80
2018-09-11T07:29:56.209Z,20.90
2018-09-11T07:32:24.754Z,20.90
2018-09-11T07:34:53.268Z,20.80
2018-09-11T07:37:22.501Z,20.80
2018-09-11T07:39:51.164Z,20.70
2018-09-11T07:42:19.891Z,20.80
2018-09-11T07:44:48.911Z,20.90
2018-09-11T07:47:17.382Z,20.90
2018-09-11T07:49:45.905Z,20.90
2018-09-11T07:52:14.414Z,20.90
2018-09-11T07:54:42.967Z,21.00
2018-09-11T07:57:11.439Z,21.00
2018-09-11T07:59:39.963Z,21.10
2018-09-11T08:02:08.580Z,21.20
2018-09-11T08:04:37.147Z,21.20
2018-09-11T08:07:05.834Z,21.30
2018-09-11T08:09:34.369Z,21.20
2018-09-11T08:12:02.861Z,21.20
2018-09-11T08:14:31.437Z,21.20
2018-09-11T08:17:00.037Z,21.40
2018-09-11T08:19:28.585Z,21.50
2018-09-11T08:21:57.120Z,21.50
2018-09-11T08:24:25.833Z,21.50
2018-09-11T08:26:54.345Z,21.60
2018-09-11T08:29:24.606Z,21.60
2018-09-11T08:31:53.171Z,21.60
2018-09-11T08:34:21.782Z,21.50
2018-09-11T08:36:51.059Z,21.50
2018-09-11T08:39:20.406Z,21.50
2018-09-11T08:41:49.005Z,21.60
2018-09-11T08:44:17.528Z,21.70
2018-09-11T08:46:46.172Z,21.90
2018-09-11T08:49:14.736Z,21.90
2018-09-11T08:51:43.442Z,22.10
2018-09-11T08:54:12.517Z,22.10
2018-09-11T08:56:41.235Z,22.00
2018-09-11T08:59:09.971Z,22.00
2018-09-11T09:01:38.605Z,22.10
2018-09-11T09:04:07.126Z,22.10
2018-09-11T09:06:35.689Z,22.10
2018-09-11T09:09:06.197Z,22.10
2018-09-11T09:11:34.817Z,22.30
2018-09-11T09:14:03.381Z,22.40
2018-09-11T09:16:32.158Z,22.70
2018-09-11T09:19:00.741Z,22.90
2018-09-11T09:21:29.362Z,22.90
2018-09-11T09:23:58.041Z,23.00
2018-09-11T09:26:26.601Z,23.00
2018-09-11T09:28:55.215Z,23.10
2018-09-11T09:31:23.658Z,23.50
2018-09-11T09:33:52.414Z,24.10
2018-09-11T09:36:21.015Z,24.60
2018-09-11T09:38:50.498Z,25.00
2018-09-11T09:41:19.109Z,25.30
2018-09-11T09:43:47.744Z,25.10
2018-09-11T09:46:16.326Z,25.20
2018-09-11T09:48:44.811Z,25.20
2018-09-11T09:51:14.104Z,25.40
2018-09-11T09:53:42.639Z,25.70
2018-09-11T09:56:11.169Z,26.80
2018-09-11T09:58:39.893Z,27.00
2018-09-11T10:01:13.862Z,26.90
2018-09-11T10:03:42.523Z,26.90
2018-09-11T10:06:11.259Z,26.80
2018-09-11T10:08:47.189Z,27.90
2018-09-11T10:11:15.658Z,28.60
2018-09-11T10:13:44.191Z,28.60
2018-09-11T10:16:12.714Z,29.20
2018-09-11T10:18:41.232Z,29.30
2018-09-11T10:21:09.750Z,28.80
2018-09-11T10:23:38.222Z,29.40
2018-09-11T10:26:06.992Z,30.20
2018-09-11T10:28:35.481Z,30.70
2018-09-11T10:31:03.957Z,31.00
2018-09-11T10:33:32.443Z,31.10
2018-09-11T10:36:01.162Z,31.80
2018-09-11T10:38:29.778Z,31.90
2018-09-11T10:40:58.404Z,32.40
2018-09-11T10:43:26.971Z,32.70
2018-09-11T10:45:55.673Z,33.20
2018-09-11T10:48:24.222Z,32.80
2018-09-11T10:50:52.823Z,32.50
2018-09-11T10:53:21.385Z,31.80
2018-09-11T10:55:50.407Z,31.20
2018-09-11T10:58:18.905Z,30.30
2018-09-11T11:00:47.462Z,29.70
2018-09-11T11:03:16.227Z,29.20
2018-09-11T11:05:44.709Z,28.90
2018-09-11T11:08:14.354Z,28.50
2018-09-11T11:10:42.964Z,28.40
2018-09-11T11:13:15.806Z,28.20
2018-09-11T11:15:44.363Z,27.80
2018-09-11T11:18:12.913Z,27.50
2018-09-11T11:20:41.703Z,27.20
2018-09-11T11:23:10.551Z,27.10
2018-09-11T11:25:39.096Z,27.30
2018-09-11T11:28:07.638Z,27.30
2018-09-11T11:30:36.344Z,27.50
2018-09-11T11:33:04.951Z,27.80
2018-09-11T11:35:33.630Z,27.80
2018-09-11T11:38:02.088Z,27.80
2018-09-11T11:40:30.704Z,28.00
2018-09-11T11:42:59.287Z,28.00
2018-09-11T11:45:27.923Z,27.80
2018-09-11T11:47:56.428Z,27.80
2018-09-11T11:50:25.523Z,27.80
2018-09-11T11:52:54.007Z,27.60
2018-09-11T11:55:22.608Z,27.40
2018-09-11T11:57:51.086Z,27.20
2018-09-11T12:00:19.669Z,27.20
2018-09-11T12:02:48.207Z,27.30
2018-09-11T12:05:16.801Z,27.10
2018-09-11T12:07:45.460Z,26.90
2018-09-11T12:10:14.038Z,26.60
2018-09-11T12:12:42.551Z,26.40
2018-09-11T12:15:11.189Z,26.10
2018-09-11T12:17:40.597Z,26.00
2018-09-11T12:20:09.193Z,25.80
2018-09-11T12:22:37.727Z,25.80
2018-09-11T12:25:06.258Z,26.00
2018-09-11T12:27:34.822Z,26.50
2018-09-11T12:30:03.469Z,26.80
2018-09-11T12:32:32.137Z,26.90
2018-09-11T12:35:00.683Z,27.60
2018-09-11T12:37:29.221Z,28.60
2018-09-11T12:39:57.815Z,29.90
2018-09-11T12:42:26.382Z,30.60
2018-09-11T12:44:54.998Z,31.00
2018-09-11T12:47:23.955Z,31.30
2018-09-11T12:49:52.141Z,31.20
2018-09-11T12:52:20.803Z,30.70
2018-09-11T12:54:49.385Z,30.40
2018-09-11T12:57:17.959Z,30.10
2018-09-11T12:59:46.581Z,29.70
2018-09-11T13:02:15.993Z,29.30
2018-09-11T13:04:44.553Z,29.00
2018-09-11T13:07:13.067Z,28.70
2018-09-11T13:09:41.673Z,28.50
2018-09-11T13:12:10.179Z,28.60
2018-09-11T13:14:38.657Z,28.70
2018-09-11T13:17:07.882Z,29.10
2018-09-11T13:19:36.582Z,29.90
2018-09-11T13:22:05.169Z,30.00
2018-09-11T13:24:33.709Z,30.20
2018-09-11T13:27:02.260Z,30.90
2018-09-11T13:29:30.755Z,30.80
2018-09-11T13:31:59.237Z,30.50
2018-09-11T13:34:27.796Z,29.90
2018-09-11T13:36:56.250Z,29.40
2018-09-11T13:39:24.760Z,28.80
2018-09-11T13:41:53.415Z,28.20
2018-09-11T13:44:22.615Z,27.80
2018-09-11T13:46:51.271Z,27.50
2018-09-11T13:49:19.714Z,27.20
2018-09-11T13:51:48.431Z,26.80
2018-09-11T13:54:17.149Z,26.50
2018-09-11T13:56:45.777Z,26.40
2018-09-11T13:59:14.425Z,26.20
2018-09-11T14:01:42.944Z,26.10
2018-09-11T14:04:11.540Z,26.00
2018-09-11T14:06:40.081Z,25.90
2018-09-11T14:09:12.103Z,25.80
2018-09-11T14:11:41.137Z,25.70
2018-09-11T14:14:09.768Z,25.70
2018-09-11T14:16:38.337Z,25.70
2018-09-11T14:19:07.141Z,25.60
2018-09-11T14:21:36.643Z,25.70
2018-09-11T14:24:05.568Z,25.70
2018-09-11T14:26:34.278Z,25.80
2018-09-11T14:29:03.315Z,25.90
2018-09-11T14:31:31.894Z,25.90
2018-09-11T14:34:00.814Z,25.70
2018-09-11T14:36:29.963Z,25.60
2018-09-11T14:38:58.617Z,25.50
2018-09-11T14:41:27.222Z,25.40
2018-09-11T14:43:55.933Z,25.30
2018-09-11T14:46:24.615Z,25.20
2018-09-11T14:48:53.259Z,25.10
2018-09-11T14:51:21.787Z,25.00
2018-09-11T14:53:50.305Z,25.00
2018-09-11T14:56:18.891Z,24.90
2018-09-11T14:58:47.547Z,24.80
2018-09-11T15:01:16.023Z,24.80
2018-09-11T15:03:44.579Z,24.80
2018-09-11T15:06:13.101Z,24.70
2018-09-11T15:08:41.862Z,24.60
2018-09-11T15:11:10.453Z,24.60
2018-09-11T15:13:38.991Z,24.50
2018-09-11T15:16:07.515Z,24.50
2018-09-11T15:18:36.384Z,24.40
2018-09-11T15:21:04.868Z,24.40
2018-09-11T15:23:33.647Z,24.30
2018-09-11T15:26:02.670Z,24.30
2018-09-11T15:28:31.401Z,24.20
2018-09-11T15:31:00.207Z,24.10
2018-09-11T15:33:28.974Z,24.10
2018-09-11T15:36:00.094Z,24.10
2018-09-11T15:38:28.533Z,24.10
2018-09-11T15:40:57.264Z,24.20
2018-09-11T15:43:26.030Z,24.20
2018-09-11T15:45:55.823Z,24.10
2018-09-11T15:48:25.701Z,24.20
2018-09-11T15:50:54.489Z,24.30
2018-09-11T15:53:23.159Z,24.30
2018-09-11T15:55:51.800Z,24.40
2018-09-11T15:58:20.282Z,24.40
2018-09-11T16:00:50.380Z,24.40
2018-09-11T16:03:19.193Z,24.30
2018-09-11T16:05:47.799Z,24.20
2018-09-11T16:08:16.335Z,24.00
2018-09-11T16:10:44.930Z,23.80
2018-09-11T16:13:13.807Z,23.70
2018-09-11T16:15:42.516Z,23.60
2018-09-11T16:18:11.093Z,23.50
2018-09-11T16:20:39.797Z,23.40
2018-09-11T16:23:08.242Z,23.20
2018-09-11T16:25:36.736Z,23.20
2018-09-11T16:28:05.437Z,23.10
2018-09-11T16:30:34.046Z,23.10
2018-09-11T16:33:02.539Z,23.10
2018-09-11T16:35:31.162Z,23.10
2018-09-11T16:37:59.827Z,23.10
2018-09-11T16:40:28.308Z,23.10
2018-09-11T16:42:57.198Z,23.00
2018-09-11T16:45:25.688Z,22.90
2018-09-11T16:47:54.236Z,22.80
2018-09-11T16:50:22.734Z,22.70
2018-09-11T16:52:51.446Z,22.70
2018-09-11T16:55:19.983Z,22.70
2018-09-11T16:57:48.525Z,22.70
2018-09-11T17:00:17.198Z,22.60
2018-09-11T17:02:45.839Z,22.50
2018-09-11T17:05:14.374Z,22.40
2018-09-11T17:07:43.003Z,22.30
2018-09-11T17:10:11.496Z,22.30
2018-09-11T17:12:40.076Z,22.30
2018-09-11T17:15:08.597Z,22.20
2018-09-11T17:17:37.242Z,22.20
2018-09-11T17:20:05.840Z,22.20
2018-09-11T17:22:34.365Z,22.10
2018-09-11T17:25:03.315Z,22.10
2018-09-11T17:27:31.827Z,22.00
2018-09-11T17:30:00.593Z,22.00
2018-09-11T17:32:29.130Z,21.90
2018-09-11T17:34:57.774Z,21.90
2018-09-11T17:37:26.373Z,21.80
2018-09-11T17:39:54.960Z,21.80
2018-09-11T17:42:23.629Z,21.80
2018-09-11T17:44:52.467Z,21.70
2018-09-11T17:47:21.080Z,21.70
2018-09-11T17:49:49.675Z,21.70
2018-09-11T17:52:18.712Z,21.60
2018-09-11T17:54:48.642Z,21.50
2018-09-11T17:57:17.561Z,21.50
2018-09-11T17:59:46.139Z,21.50
2018-09-11T18:02:14.893Z,21.40
2018-09-11T18:04:44.297Z,21.40
2018-09-11T18:07:12.919Z,21.40
2018-09-11T18:09:41.566Z,21.30
2018-09-11T18:12:10.713Z,21.30
2018-09-11T18:14:39.381Z,21.30
2018-09-11T18:17:08.092Z,21.20
2018-09-11T18:19:36.724Z,21.20
2018-09-11T18:22:05.375Z,21.10
2018-09-11T18:24:34.286Z,21.10
2018-09-11T18:27:02.869Z,21.10
2018-09-11T18:29:32.273Z,21.10
2018-09-11T18:32:00.895Z,21.10
2018-09-11T18:34:29.812Z,21.10
2018-09-11T18:36:58.408Z,21.10
2018-09-11T18:39:27.262Z,21.10
2018-09-11T18:41:55.843Z,21.10
2018-09-11T18:44:24.541Z,21.00
2018-09-11T18:46:53.314Z,21.00
2018-09-11T18:49:22.000Z,21.00
2018-09-11T18:51:50.973Z,21.00
2018-09-11T18:54:19.506Z,21.00
2018-09-11T18:56:48.162Z,21.00
2018-09-11T18:59:16.719Z,21.00
2018-09-11T19:01:46.190Z,21.00
2018-09-11T19:04:14.762Z,21.00
2018-09-11T19:06:43.807Z,21.00
2018-09-11T19:09:12.925Z,20.90
2018-09-11T19:11:41.832Z,20.90
2018-09-11T19:14:11.026Z,21.00
2018-09-11T19:16:39.839Z,20.90
2018-09-11T19:19:08.702Z,20.90
2018-09-11T19:21:38.057Z,20.90
2018-09-11T19:24:09.609Z,20.90
2018-09-11T19:26:38.398Z,20.90
2018-09-11T19:29:06.942Z,20.80
2018-09-11T19:31:36.093Z,20.90
2018-09-11T19:34:05.355Z,20.80
2018-09-11T19:36:34.040Z,20.80
2018-09-11T19:39:02.630Z,20.80
2018-09-11T19:41:31.493Z,20.90
2018-09-11T19:44:00.068Z,20.90
2018-09-11T19:46:28.615Z,20.80
2018-09-11T19:48:57.185Z,20.80
2018-09-11T19:51:25.759Z,20.80
2018-09-11T19:53:54.263Z,20.90
2018-09-11T19:56:22.987Z,20.80
2018-09-11T19:58:51.526Z,20.90
2018-09-11T20:01:20.117Z,20.80
2018-09-11T20:03:48.761Z,20.90
2018-09-11T20:06:17.281Z,20.90
2018-09-11T20:08:45.913Z,20.90
2018-09-11T20:11:14.648Z,20.90
2018-09-11T20:13:43.215Z,20.80
2018-09-11T20:16:11.783Z,20.90
2018-09-11T20:18:53.494Z,20.90
2018-09-11T20:21:36.961Z,20.90
2018-09-11T20:24:06.401Z,20.90
2018-09-11T20:26:35.013Z,20.90
2018-09-11T20:29:03.629Z,20.90
2018-09-11T20:31:32.186Z,20.90
2018-09-11T20:34:00.765Z,20.80
2018-09-11T20:36:31.166Z,20.80
2018-09-11T20:38:59.929Z,20.90
2018-09-11T20:41:29.758Z,20.90
2018-09-11T20:43:58.870Z,20.90
2018-09-11T20:46:27.531Z,20.90
2018-09-11T20:48:56.064Z,20.80
2018-09-11T20:51:24.664Z,20.90
2018-09-11T20:53:53.377Z,21.00
2018-09-11T20:56:23.355Z,21.00
2018-09-11T20:58:52.449Z,20.90
2018-09-11T21:01:21.599Z,20.90
2018-09-11T21:03:50.075Z,20.90
2018-09-11T21:06:18.679Z,20.90
2018-09-11T21:08:47.344Z,20.80
2018-09-11T21:11:15.916Z,20.80
2018-09-11T21:13:45.077Z,20.80
2018-09-11T21:16:13.918Z,20.80
2018-09-11T21:18:42.447Z,20.80
2018-09-11T21:21:11.184Z,20.80
2018-09-11T21:23:41.497Z,20.80
2018-09-11T21:26:10.099Z,20.70
2018-09-11T21:28:38.622Z,20.70
2018-09-11T21:31:07.447Z,20.70
2018-09-11T21:33:35.902Z,20.70
2018-09-11T21:36:04.381Z,20.70
2018-09-11T21:38:33.307Z,20.80
2018-09-11T21:41:01.857Z,20.70
2018-09-11T21:43:31.325Z,20.80
2018-09-11T21:46:00.647Z,20.70
2018-09-11T21:48:29.145Z,20.80
2018-09-11T21:50:57.767Z,20.70
2018-09-11T21:53:26.264Z,20.70
2018-09-11T21:55:54.922Z,20.70
2018-09-11T21:58:23.719Z,20.70
2018-09-11T22:00:57.892Z,20.70
2018-09-11T22:03:27.010Z,20.80
2018-09-11T22:05:56.029Z,20.70
2018-09-11T22:08:24.553Z,20.70
2018-09-11T22:10:53.187Z,20.70
2018-09-11T22:13:21.659Z,20.70
2018-09-11T22:15:50.217Z,20.70
2018-09-11T22:18:19.367Z,20.70
2018-09-11T22:20:47.840Z,20.70
2018-09-11T22:23:16.334Z,20.70
2018-09-11T22:25:44.804Z,20.70
2018-09-11T22:28:13.981Z,20.70
2018-09-11T22:30:42.574Z,20.70
2018-09-11T22:33:11.135Z,20.80
2018-09-11T22:35:39.783Z,20.70
2018-09-11T22:38:08.290Z,20.70
2018-09-11T22:40:36.789Z,20.80
2018-09-11T22:43:05.953Z,20.70
2018-09-11T22:45:35.377Z,20.70
2018-09-11T22:48:03.884Z,20.70
2018-09-11T22:50:33.097Z,20.70
2018-09-11T22:53:01.496Z,20.70
2018-09-11T22:55:31.224Z,20.70
2018-09-11T22:58:00.397Z,20.70
2018-09-11T23:00:29.170Z,20.70
2018-09-11T23:02:57.855Z,20.70
2018-09-11T23:05:26.407Z,20.70
2018-09-11T23:07:55.233Z,20.70
2018-09-11T23:10:24.097Z,20.70
2018-09-11T23:12:52.702Z,20.70
2018-09-11T23:15:21.410Z,20.70
2018-09-11T23:17:50.784Z,20.70
2018-09-11T23:20:19.391Z,20.70
2018-09-11T23:22:48.531Z,20.70
2018-09-11T23:25:17.689Z,20.70
2018-09-11T23:27:46.635Z,20.70
2018-09-11T23:30:15.426Z,20.70
2018-09-11T23:32:44.127Z,20.70
2018-09-11T23:35:12.767Z,20.70
2018-09-11T23:37:41.256Z,20.70
2018-09-11T23:40:09.886Z,20.70
2018-09-11T23:42:38.324Z,20.70
2018-09-11T23:45:06.839Z,20.70
2018-09-11T23:47:35.922Z,20.70
2018-09-11T23:50:04.513Z,20.70
2018-09-11T23:52:33.127Z,20.70
2018-09-11T23:55:01.693Z,20.70
2018-09-11T23:57:30.194Z,20.70
2018-09-11T23:59:58.752Z,20.70
